createdAt,value
2019-02-07T00:01:28.548Z,-0.60
2019-02-07T00:03:57.400Z,-0.60
2019-02-07T00:06:26.713Z,-0.60
2019-02-07T00:08:55.512Z,-0.50
2019-02-07T00:11:24.870Z,-0.50
2019-02-07T00:13:53.737Z,-0.50
2019-02-07T00:16:23.148Z,-0.50
2019-02-07T00:18:52.312Z,-0.50
2019-02-07T00:21:21.170Z,-0.50
2019-02-07T00:23:50.044Z,-0.40
2019-02-07T00:26:18.915Z,-0.40
2019-02-07T00:28:47.781Z,-0.40
2019-02-07T00:31:17.071Z,-0.40
2019-02-07T00:33:45.956Z,-0.40
2019-02-07T00:36:14.802Z,-0.40
2019-02-07T00:38:43.868Z,-0.40
2019-02-07T00:41:12.712Z,-0.40
2019-02-07T00:43:41.505Z,-0.40
2019-02-07T00:46:10.642Z,-0.40
2019-02-07T00:48:39.508Z,-0.40
2019-02-07T00:51:08.618Z,-0.40
2019-02-07T00:53:37.538Z,-0.40
2019-02-07T00:56:06.393Z,-0.50
2019-02-07T00:58:35.518Z,-0.60
2019-02-07T01:01:05.032Z,-0.70
2019-02-07T01:03:34.033Z,-0.80
2019-02-07T01:06:02.978Z,-0.90
2019-02-07T01:08:32.106Z,-0.90
2019-02-07T01:11:00.885Z,-1.00
2019-02-07T01:13:29.761Z,-1.00
2019-02-07T01:15:58.701Z,-1.00
2019-02-07T01:18:27.574Z,-0.90
2019-02-07T01:20:56.605Z,-0.80
2019-02-07T01:23:25.551Z,-0.70
2019-02-07T01:25:54.407Z,-0.70
2019-02-07T01:28:23.286Z,-0.60
2019-02-07T01:30:52.338Z,-0.60
2019-02-07T01:33:21.379Z,-0.50
2019-02-07T01:35:50.154Z,-0.50
2019-02-07T01:38:18.941Z,-0.50
2019-02-07T01:40:47.813Z,-0.50
2019-02-07T01:43:16.998Z,-0.40
2019-02-07T01:45:45.961Z,-0.40
2019-02-07T01:48:15.332Z,-0.30
2019-02-07T01:50:44.550Z,-0.30
2019-02-07T01:53:13.333Z,-0.20
2019-02-07T01:55:42.197Z,-0.20
2019-02-07T01:58:11.314Z,-0.10
2019-02-07T02:00:40.190Z,-0.10
2019-02-07T02:03:09.570Z,0.00
2019-02-07T02:05:38.361Z,0.00
2019-02-07T02:08:07.515Z,0.00
2019-02-07T02:10:36.469Z,0.00
2019-02-07T02:13:05.542Z,0.10
2019-02-07T02:15:34.410Z,0.10
2019-02-07T02:18:03.428Z,0.10
2019-02-07T02:20:32.529Z,0.20
2019-02-07T02:23:01.302Z,0.20
2019-02-07T02:25:30.083Z,0.30
2019-02-07T02:27:59.688Z,0.30
2019-02-07T02:30:30.909Z,0.40
2019-02-07T02:33:00.153Z,0.40
2019-02-07T02:35:29.140Z,0.40
2019-02-07T02:37:57.981Z,0.40
2019-02-07T02:40:27.266Z,0.50
2019-02-07T02:42:56.549Z,0.50
2019-02-07T02:45:37.011Z,0.50
2019-02-07T02:47:56.942Z,0.50
2019-02-07T02:50:26.013Z,0.60
2019-02-07T02:52:54.910Z,0.60
2019-02-07T02:55:32.852Z,0.70
2019-02-07T02:58:01.871Z,0.70
2019-02-07T03:00:52.895Z,0.70
2019-02-07T03:03:32.821Z,0.70
2019-02-07T03:06:09.488Z,0.70
2019-02-07T03:08:57.863Z,0.70
2019-02-07T03:11:38.586Z,0.80
2019-02-07T03:14:16.546Z,0.80
2019-02-07T03:16:58.801Z,0.80
2019-02-07T03:19:40.338Z,0.80
2019-02-07T03:22:37.376Z,0.90
2019-02-07T03:25:33.540Z,0.90
2019-02-07T03:28:13.012Z,0.90
2019-02-07T03:31:00.943Z,1.00
2019-02-07T03:33:42.413Z,1.10
2019-02-07T03:36:21.312Z,1.10
2019-02-07T03:39:09.166Z,1.20
2019-02-07T03:41:57.737Z,1.20
2019-02-07T03:44:44.202Z,1.30
2019-02-07T03:47:32.140Z,1.30
2019-02-07T03:50:26.046Z,1.40
2019-02-07T03:53:07.854Z,1.40
2019-02-07T03:56:02.229Z,1.50
2019-02-07T03:58:59.390Z,1.50
2019-02-07T04:01:43.974Z,1.50
2019-02-07T04:04:26.949Z,1.50
2019-02-07T04:07:04.076Z,1.50
2019-02-07T04:09:53.020Z,1.50
2019-02-07T04:12:49.148Z,1.50
2019-02-07T04:15:39.930Z,1.50
2019-02-07T04:18:28.844Z,1.50
2019-02-07T04:21:11.841Z,1.50
2019-02-07T04:23:58.399Z,1.50
2019-02-07T04:26:56.841Z,1.50
2019-02-07T04:29:50.579Z,1.40
2019-02-07T04:32:37.170Z,1.40
2019-02-07T04:35:24.168Z,1.40
2019-02-07T04:38:18.232Z,1.40
2019-02-07T04:41:14.965Z,1.40
2019-02-07T04:44:01.472Z,1.40
2019-02-07T04:46:51.883Z,1.50
2019-02-07T04:49:34.091Z,1.50
2019-02-07T04:52:20.405Z,1.50
2019-02-07T04:54:57.654Z,1.50
2019-02-07T04:57:51.531Z,1.50
2019-02-07T05:00:39.869Z,1.50
2019-02-07T05:03:24.117Z,1.60
2019-02-07T05:06:02.114Z,1.60
2019-02-07T05:08:49.978Z,1.60
2019-02-07T05:11:45.100Z,1.60
2019-02-07T05:14:33.025Z,1.70
2019-02-07T05:17:21.731Z,1.70
2019-02-07T05:20:11.131Z,1.70
2019-02-07T05:23:05.881Z,1.70
2019-02-07T05:25:53.733Z,1.70
2019-02-07T05:28:45.637Z,1.70
2019-02-07T05:31:21.986Z,1.70
2019-02-07T05:34:08.829Z,1.70
2019-02-07T05:36:55.704Z,1.70
2019-02-07T05:39:42.256Z,1.70
2019-02-07T05:42:30.326Z,1.70
2019-02-07T05:45:14.322Z,1.70
2019-02-07T05:48:14.415Z,1.70
2019-02-07T05:50:55.695Z,1.70
2019-02-07T05:53:37.645Z,1.70
2019-02-07T05:56:15.380Z,1.70
2019-02-07T05:59:04.698Z,1.70
2019-02-07T06:01:41.604Z,1.70
2019-02-07T06:04:28.251Z,1.80
2019-02-07T06:07:14.835Z,1.80
2019-02-07T06:09:52.949Z,1.80
2019-02-07T06:12:47.187Z,1.80
2019-02-07T06:15:29.676Z,1.80
2019-02-07T06:18:25.957Z,1.80
2019-02-07T06:21:13.872Z,1.90
2019-02-07T06:24:04.806Z,1.90
2019-02-07T06:26:58.743Z,1.90
2019-02-07T06:29:40.457Z,1.90
2019-02-07T06:32:17.479Z,2.00
2019-02-07T06:35:05.410Z,2.00
2019-02-07T06:37:52.388Z,2.00
2019-02-07T06:40:30.025Z,2.00
2019-02-07T06:43:22.409Z,2.10
2019-02-07T06:46:04.893Z,2.10
2019-02-07T06:48:51.249Z,2.20
2019-02-07T06:51:37.821Z,2.20
2019-02-07T06:54:18.538Z,2.30
2019-02-07T06:57:12.802Z,2.40
2019-02-07T06:59:59.401Z,2.50
2019-02-07T07:02:50.273Z,2.50
2019-02-07T07:05:33.690Z,2.60
2019-02-07T07:08:10.997Z,2.60
2019-02-07T07:11:10.839Z,2.80
2019-02-07T07:14:10.852Z,2.90
2019-02-07T07:16:46.960Z,3.00
2019-02-07T07:19:37.919Z,3.10
2019-02-07T07:22:44.210Z,3.10
2019-02-07T07:25:22.980Z,3.20
2019-02-07T07:28:28.873Z,3.20
2019-02-07T07:31:19.824Z,3.20
2019-02-07T07:34:16.945Z,3.20
2019-02-07T07:37:03.264Z,3.20
2019-02-07T07:39:54.821Z,3.20
2019-02-07T07:42:53.215Z,3.20
2019-02-07T07:45:44.174Z,3.10
2019-02-07T07:48:41.055Z,3.10
2019-02-07T07:51:41.005Z,3.10
2019-02-07T07:54:23.416Z,3.10
2019-02-07T07:57:18.931Z,3.20
2019-02-07T08:00:11.491Z,3.20
2019-02-07T08:02:59.818Z,3.10
2019-02-07T08:05:46.423Z,3.10
2019-02-07T08:08:34.373Z,3.10
2019-02-07T08:11:20.926Z,3.10
2019-02-07T08:13:56.510Z,3.10
2019-02-07T08:16:43.102Z,3.20
2019-02-07T08:19:49.182Z,3.10
2019-02-07T08:22:35.659Z,3.10
2019-02-07T08:25:24.754Z,3.20
2019-02-07T08:28:26.715Z,3.20
2019-02-07T08:31:20.538Z,3.30
2019-02-07T08:34:17.153Z,3.40
2019-02-07T08:36:58.338Z,3.40
2019-02-07T08:39:49.399Z,3.40
2019-02-07T08:42:52.541Z,3.40
2019-02-07T08:45:39.005Z,3.50
2019-02-07T08:48:20.161Z,3.50
2019-02-07T08:51:01.826Z,3.50
2019-02-07T08:53:52.857Z,3.60
2019-02-07T08:56:43.998Z,3.80
2019-02-07T08:59:40.833Z,3.90
2019-02-07T09:02:27.606Z,4.00
2019-02-07T09:05:16.393Z,4.10
2019-02-07T09:08:02.178Z,4.10
2019-02-07T09:10:59.150Z,4.10
2019-02-07T09:13:43.376Z,4.10
2019-02-07T09:16:27.430Z,4.20
2019-02-07T09:19:21.058Z,4.20
2019-02-07T09:22:07.938Z,4.30
2019-02-07T09:24:54.506Z,4.30
2019-02-07T09:27:38.303Z,4.60
2019-02-07T09:30:27.999Z,4.70
2019-02-07T09:33:18.997Z,4.80
2019-02-07T09:36:05.038Z,4.80
2019-02-07T09:38:39.173Z,4.70
2019-02-07T09:41:19.675Z,4.60
2019-02-07T09:44:02.828Z,4.50
2019-02-07T09:46:43.286Z,4.50
2019-02-07T09:49:31.586Z,4.50
2019-02-07T09:52:22.533Z,4.50
2019-02-07T09:55:09.154Z,4.50
2019-02-07T09:58:00.145Z,4.50
2019-02-07T10:00:48.039Z,4.60
2019-02-07T10:03:25.971Z,4.50
2019-02-07T10:06:20.029Z,4.50
2019-02-07T10:09:06.434Z,4.50
2019-02-07T10:11:52.903Z,4.50
2019-02-07T10:14:50.474Z,4.50
2019-02-07T10:17:26.813Z,4.60
2019-02-07T10:20:25.993Z,4.60
2019-02-07T10:23:13.846Z,4.60
2019-02-07T10:26:01.706Z,4.70
2019-02-07T10:28:48.050Z,4.60
2019-02-07T10:31:34.546Z,4.60
2019-02-07T10:34:19.531Z,4.60
2019-02-07T10:36:55.043Z,4.60
2019-02-07T10:39:41.657Z,4.60
2019-02-07T10:42:42.221Z,4.50
2019-02-07T10:45:29.858Z,4.50
2019-02-07T10:48:16.470Z,4.60
2019-02-07T10:51:04.484Z,4.60
2019-02-07T10:53:55.219Z,4.70
2019-02-07T10:56:43.324Z,4.90
2019-02-07T10:59:37.464Z,5.10
2019-02-07T11:02:24.734Z,5.30
2019-02-07T11:05:13.013Z,5.60
2019-02-07T11:08:06.893Z,5.60
2019-02-07T11:10:56.942Z,5.80
2019-02-07T11:13:47.679Z,5.80
2019-02-07T11:16:34.317Z,5.80
2019-02-07T11:19:28.298Z,5.90
2019-02-07T11:22:11.273Z,6.20
2019-02-07T11:24:58.640Z,6.60
2019-02-07T11:27:47.945Z,6.80
2019-02-07T11:30:28.451Z,6.90
2019-02-07T11:33:19.221Z,7.10
2019-02-07T11:35:59.188Z,7.00
2019-02-07T11:38:45.818Z,6.90
2019-02-07T11:41:38.965Z,7.30
2019-02-07T11:44:32.680Z,7.40
2019-02-07T11:47:11.264Z,7.60
2019-02-07T11:49:59.509Z,7.80
2019-02-07T11:52:39.245Z,7.70
2019-02-07T11:55:28.253Z,7.70
2019-02-07T11:58:10.976Z,7.60
2019-02-07T12:00:56.403Z,7.60
2019-02-07T12:03:41.949Z,7.70
2019-02-07T12:06:48.058Z,7.80
2019-02-07T12:09:42.072Z,7.80
2019-02-07T12:12:28.398Z,8.10
2019-02-07T12:15:15.095Z,8.30
2019-02-07T12:18:08.607Z,8.40
2019-02-07T12:21:14.661Z,8.50
2019-02-07T12:24:02.585Z,8.50
2019-02-07T12:26:49.171Z,8.00
2019-02-07T12:29:31.442Z,7.90
2019-02-07T12:32:19.678Z,8.30
2019-02-07T12:35:22.478Z,8.40
2019-02-07T12:38:08.925Z,8.20
2019-02-07T12:41:08.765Z,8.10
2019-02-07T12:44:02.378Z,8.00
2019-02-07T12:46:59.111Z,8.30
2019-02-07T12:49:47.021Z,8.60
2019-02-07T12:52:40.725Z,8.80
2019-02-07T12:55:52.085Z,8.60
2019-02-07T12:58:36.466Z,8.40
2019-02-07T13:01:23.945Z,8.20
2019-02-07T13:04:10.443Z,7.80
2019-02-07T13:06:51.537Z,7.40
2019-02-07T13:09:37.921Z,7.30
2019-02-07T13:12:26.613Z,7.10
2019-02-07T13:15:23.717Z,6.90
2019-02-07T13:18:11.986Z,6.90
2019-02-07T13:20:59.851Z,6.90
2019-02-07T13:23:55.412Z,7.10
2019-02-07T13:26:32.102Z,7.20
2019-02-07T13:29:19.058Z,7.10
2019-02-07T13:32:19.306Z,7.20
2019-02-07T13:35:19.349Z,7.10
2019-02-07T13:38:16.097Z,6.90
2019-02-07T13:41:09.503Z,6.90
2019-02-07T13:43:58.174Z,7.10
2019-02-07T13:46:56.638Z,7.10
2019-02-07T13:49:51.659Z,7.00
2019-02-07T13:52:40.006Z,7.00
2019-02-07T13:55:21.033Z,6.80
2019-02-07T13:58:26.914Z,7.10
2019-02-07T14:01:08.890Z,7.10
2019-02-07T14:03:53.686Z,7.20
2019-02-07T14:06:44.771Z,7.40
2019-02-07T14:09:31.198Z,7.50
2019-02-07T14:12:18.642Z,7.60
2019-02-07T14:15:09.594Z,7.70
2019-02-07T14:18:06.108Z,7.40
2019-02-07T14:21:03.217Z,7.40
2019-02-07T14:23:44.013Z,7.50
2019-02-07T14:26:40.802Z,7.50
2019-02-07T14:29:28.801Z,7.40
2019-02-07T14:32:11.357Z,7.20
2019-02-07T14:34:59.596Z,7.10
2019-02-07T14:37:45.937Z,7.00
2019-02-07T14:40:31.840Z,6.80
2019-02-07T14:43:09.287Z,6.70
2019-02-07T14:45:43.677Z,6.70
2019-02-07T14:48:23.113Z,6.70
2019-02-07T14:50:52.620Z,6.60
2019-02-07T14:53:21.630Z,6.40
2019-02-07T14:55:50.624Z,6.40
2019-02-07T14:58:19.627Z,6.30
2019-02-07T15:00:48.663Z,6.20
2019-02-07T15:03:17.699Z,6.10
2019-02-07T15:05:46.833Z,6.10
2019-02-07T15:08:15.677Z,6.10
2019-02-07T15:10:44.640Z,6.10
2019-02-07T15:13:13.659Z,6.00
2019-02-07T15:15:42.509Z,5.90
2019-02-07T15:18:11.430Z,5.80
2019-02-07T15:20:40.988Z,5.60
2019-02-07T15:23:09.829Z,5.50
2019-02-07T15:25:38.918Z,5.50
2019-02-07T15:28:07.784Z,5.50
2019-02-07T15:30:36.892Z,5.60
2019-02-07T15:33:05.910Z,5.60
2019-02-07T15:35:37.500Z,5.60
2019-02-07T15:38:06.517Z,5.70
2019-02-07T15:40:35.421Z,5.70
2019-02-07T15:43:04.798Z,5.70
2019-02-07T15:45:34.006Z,5.70
2019-02-07T15:48:02.790Z,5.70
2019-02-07T15:50:37.590Z,5.50
2019-02-07T15:53:03.386Z,5.60
2019-02-07T15:55:32.268Z,5.60
2019-02-07T15:58:01.346Z,5.40
2019-02-07T16:01:02.553Z,5.20
2019-02-07T16:03:37.272Z,5.00
2019-02-07T16:06:06.666Z,4.80
2019-02-07T16:08:35.583Z,4.70
2019-02-07T16:11:05.514Z,4.80
2019-02-07T16:13:34.653Z,4.90
2019-02-07T16:16:03.854Z,4.90
2019-02-07T16:18:32.774Z,5.00
2019-02-07T16:21:01.709Z,5.00
2019-02-07T16:23:30.483Z,5.00
2019-02-07T16:25:59.358Z,5.00
2019-02-07T16:28:28.498Z,5.00
2019-02-07T16:30:57.432Z,5.00
2019-02-07T16:33:26.272Z,5.00
2019-02-07T16:35:55.215Z,5.10
2019-02-07T16:38:24.051Z,5.10
2019-02-07T16:40:53.243Z,5.10
2019-02-07T16:43:22.465Z,5.00
2019-02-07T16:45:51.431Z,4.90
2019-02-07T16:48:20.358Z,4.90
2019-02-07T16:50:59.675Z,4.80
2019-02-07T16:53:20.534Z,4.80
2019-02-07T16:55:49.325Z,4.70
2019-02-07T16:58:18.550Z,4.60
2019-02-07T17:00:47.458Z,4.60
2019-02-07T17:03:16.266Z,4.50
2019-02-07T17:05:45.249Z,4.50
2019-02-07T17:08:14.185Z,4.50
2019-02-07T17:10:43.095Z,4.50
2019-02-07T17:13:12.033Z,4.50
2019-02-07T17:15:41.163Z,4.50
2019-02-07T17:18:10.565Z,4.50
2019-02-07T17:20:39.853Z,4.40
2019-02-07T17:23:09.303Z,4.30
2019-02-07T17:25:38.072Z,4.30
2019-02-07T17:28:07.009Z,4.30
2019-02-07T17:30:36.394Z,4.20
2019-02-07T17:33:05.466Z,4.30
2019-02-07T17:35:34.378Z,4.30
2019-02-07T17:38:03.267Z,4.40
2019-02-07T17:40:32.487Z,4.40
2019-02-07T17:43:01.271Z,4.40
2019-02-07T17:45:30.557Z,4.40
2019-02-07T17:47:59.485Z,4.40
2019-02-07T17:50:30.945Z,4.40
2019-02-07T17:53:00.302Z,4.50
2019-02-07T17:55:29.490Z,4.30
2019-02-07T17:57:58.586Z,4.10
2019-02-07T18:00:40.942Z,4.10
2019-02-07T18:03:09.981Z,4.10
2019-02-07T18:05:38.818Z,4.20
2019-02-07T18:08:08.443Z,4.20
2019-02-07T18:10:37.367Z,4.10
2019-02-07T18:13:06.928Z,3.90
2019-02-07T18:15:35.782Z,3.90
2019-02-07T18:18:05.374Z,3.80
2019-02-07T18:20:34.362Z,3.70
2019-02-07T18:23:03.261Z,3.60
2019-02-07T18:25:32.202Z,3.60
2019-02-07T18:28:01.173Z,3.50
2019-02-07T18:30:30.275Z,3.60
2019-02-07T18:32:59.193Z,3.70
2019-02-07T18:35:28.042Z,3.70
2019-02-07T18:37:57.229Z,3.70
2019-02-07T18:40:26.720Z,3.60
2019-02-07T18:42:55.650Z,3.50
2019-02-07T18:45:24.669Z,3.40
2019-02-07T18:47:53.931Z,3.50
2019-02-07T18:50:25.436Z,3.50
2019-02-07T18:52:54.298Z,3.40
2019-02-07T18:55:23.373Z,3.30
2019-02-07T18:57:52.385Z,3.40
2019-02-07T19:00:23.538Z,3.60
2019-02-07T19:02:52.463Z,3.70
2019-02-07T19:05:22.054Z,3.90
2019-02-07T19:07:51.316Z,3.90
2019-02-07T19:10:21.309Z,3.90
2019-02-07T19:12:50.313Z,3.80
2019-02-07T19:15:25.504Z,3.60
2019-02-07T19:17:54.505Z,3.50
2019-02-07T19:20:23.320Z,3.50
2019-02-07T19:22:52.276Z,3.70
2019-02-07T19:25:21.142Z,3.80
2019-02-07T19:27:50.062Z,3.90
2019-02-07T19:30:37.554Z,4.00
2019-02-07T19:33:06.581Z,4.00
2019-02-07T19:35:35.525Z,4.10
2019-02-07T19:38:04.705Z,4.00
2019-02-07T19:40:33.961Z,4.00
2019-02-07T19:43:02.840Z,4.00
2019-02-07T19:45:31.676Z,3.90
2019-02-07T19:48:00.448Z,3.90
2019-02-07T19:50:29.370Z,3.90
2019-02-07T19:52:58.278Z,4.00
2019-02-07T19:55:28.157Z,4.10
2019-02-07T19:57:57.485Z,4.10
2019-02-07T20:00:28.392Z,4.10
2019-02-07T20:02:57.823Z,4.00
2019-02-07T20:05:26.693Z,4.10
2019-02-07T20:07:55.946Z,4.20
2019-02-07T20:10:26.424Z,4.10
2019-02-07T20:12:55.838Z,4.20
2019-02-07T20:15:29.528Z,4.20
2019-02-07T20:17:59.888Z,4.20
2019-02-07T20:20:29.726Z,4.20
2019-02-07T20:22:58.684Z,4.20
2019-02-07T20:25:28.235Z,4.20
2019-02-07T20:27:57.465Z,4.30
2019-02-07T20:30:28.610Z,4.30
2019-02-07T20:32:57.584Z,4.30
2019-02-07T20:35:26.543Z,4.30
2019-02-07T20:37:55.689Z,4.20
2019-02-07T20:40:25.914Z,4.20
2019-02-07T20:42:55.167Z,4.20
2019-02-07T20:45:24.554Z,4.20
2019-02-07T20:47:53.562Z,4.20
2019-02-07T20:50:23.891Z,4.20
2019-02-07T20:52:53.429Z,4.20
2019-02-07T20:55:22.723Z,4.10
2019-02-07T20:57:52.042Z,4.10
2019-02-07T21:00:32.055Z,4.10
2019-02-07T21:03:00.842Z,4.10
2019-02-07T21:05:30.709Z,4.10
2019-02-07T21:07:59.671Z,4.10
2019-02-07T21:10:29.591Z,4.10
2019-02-07T21:12:58.647Z,4.20
2019-02-07T21:15:28.059Z,4.10
2019-02-07T21:17:57.415Z,4.00
2019-02-07T21:20:27.630Z,3.90
2019-02-07T21:22:57.522Z,3.90
2019-02-07T21:25:43.732Z,3.90
2019-02-07T21:28:12.937Z,3.90
2019-02-07T21:30:41.910Z,3.90
2019-02-07T21:33:10.747Z,3.90
2019-02-07T21:35:39.584Z,3.90
2019-02-07T21:38:08.702Z,3.90
2019-02-07T21:40:37.581Z,3.90
2019-02-07T21:43:06.817Z,3.90
2019-02-07T21:45:35.969Z,3.90
2019-02-07T21:48:07.820Z,3.90
2019-02-07T21:50:36.706Z,3.90
2019-02-07T21:53:05.730Z,4.00
2019-02-07T21:55:34.740Z,4.00
2019-02-07T21:58:04.336Z,4.00
2019-02-07T22:00:35.598Z,4.00
2019-02-07T22:03:06.048Z,4.00
2019-02-07T22:05:35.209Z,4.00
2019-02-07T22:08:04.469Z,4.10
2019-02-07T22:10:33.414Z,4.10
2019-02-07T22:13:02.197Z,4.10
2019-02-07T22:15:31.560Z,4.10
2019-02-07T22:18:00.498Z,4.10
2019-02-07T22:20:29.478Z,4.00
2019-02-07T22:22:58.559Z,4.10
2019-02-07T22:25:27.549Z,4.00
2019-02-07T22:27:56.783Z,4.00
2019-02-07T22:30:31.529Z,4.10
2019-02-07T22:33:00.534Z,4.10
2019-02-07T22:35:29.685Z,4.00
2019-02-07T22:37:58.480Z,4.10
2019-02-07T22:40:27.529Z,4.10
2019-02-07T22:42:56.552Z,4.10
2019-02-07T22:45:26.025Z,4.10
2019-02-07T22:47:54.994Z,4.10
2019-02-07T22:50:25.778Z,4.10
2019-02-07T22:52:56.886Z,4.10
2019-02-07T22:55:25.607Z,4.10
2019-02-07T22:57:54.615Z,4.10
2019-02-07T23:01:03.689Z,4.10
2019-02-07T23:03:32.614Z,4.00
2019-02-07T23:06:01.594Z,4.00
2019-02-07T23:08:30.465Z,4.10
2019-02-07T23:10:59.491Z,4.10
2019-02-07T23:13:28.419Z,4.10
2019-02-07T23:15:57.622Z,4.10
2019-02-07T23:18:26.623Z,4.00
2019-02-07T23:20:55.746Z,4.00
2019-02-07T23:23:24.893Z,4.10
2019-02-07T23:25:53.846Z,4.00
2019-02-07T23:28:22.972Z,4.10
2019-02-07T23:30:51.826Z,4.00
2019-02-07T23:33:20.693Z,4.00
2019-02-07T23:35:49.625Z,4.00
2019-02-07T23:38:18.982Z,4.00
2019-02-07T23:40:47.940Z,4.00
2019-02-07T23:43:16.881Z,4.00
2019-02-07T23:45:45.900Z,4.00
2019-02-07T23:48:15.254Z,4.00
2019-02-07T23:50:44.219Z,3.90
2019-02-07T23:53:15.341Z,3.90
2019-02-07T23:55:44.382Z,3.90
2019-02-07T23:58:13.427Z,3.90
